Delta Poseidon — SVBF6 — position and weather

sailwx.info

Track history (hours):
 
Tides and Currents Weather Stations Pressure Air Temp Water Temp Dewpoint Dewpoint Depression Visibility Wind Speed Wind Dir Waves Ship Positions

Delta Poseidon

Last reported at 2016-Feb-05 09:33 UTC. Time now 2016-Feb-09 07:39 UTC.
Position N 38°21' E 019°54'.

Length 274 m; draft 16 m.

Type: Tanker. MMSI: 241086000.

Date/timePositionNaut miles runAvg speedWind from/ knotsBaromVisibWave heightAir tempDewpointWater temp
2016-Feb-05 09:33N 38°21' E 019°54'9 8.6
2016-Feb-05 08:33N 38°13' E 019°58'36 9.0
2016-Feb-05 04:33N 37°43' E 020°22'173 9.1
2016-Feb-04 09:27N 37°21' E 023°59'2612.4
2016-Feb-04 07:22N 37°45' E 024°12'12 3.2
2016-Feb-04 03:31N 37°52' E 024°25'13211.8
2016-Feb-03 16:23N 39°47' E 025°45'  
2016-Jan-31 09:33N 40°53' E 028°38'1211.4
2016-Jan-31 08:32N 40°56' E 028°53'8 8.0
2016-Jan-31 07:33N 41°02' E 028°60'  
2016-Jan-26 22:17N 44°30' E 037°39'913.0
2016-Jan-26 21:34N 44°37' E 037°48'5 5.4
2016-Jan-26 20:33N 44°42' E 037°50'0 0.2
2016-Jan-26 19:33N 44°42' E 037°50'0 0.0
2016-Jan-26 18:34N 44°42' E 037°50'0 0.0
2016-Jan-26 17:33N 44°42' E 037°50'0 0.0
2016-Jan-26 16:33N 44°42' E 037°50'0 0.0
2016-Jan-26 15:33N 44°42' E 037°50'0 0.0
2016-Jan-26 14:33N 44°42' E 037°50'0 0.0
2016-Jan-26 13:34N 44°42' E 037°50'0 0.0
2016-Jan-26 12:33N 44°42' E 037°50'0 0.0
2016-Jan-26 11:34N 44°42' E 037°50'0 0.0
2016-Jan-26 10:34N 44°42' E 037°50'0 0.0
2016-Jan-26 09:34N 44°42' E 037°50'  
Track history (hours):
 
Tides and Currents Weather Stations Pressure Air Temp Water Temp Dewpoint Dewpoint Depression Visibility Wind Speed Wind Dir Waves Ship Positions

Delta Poseidon

Last reported at 2016-Feb-05 09:33 UTC. Time now 2016-Feb-09 07:39 UTC.
Position N 38°21' E 019°54'.

Length 274 m; draft 16 m.

Type: Tanker. MMSI: 241086000.

Date/timePositionNaut miles runAvg speedWind from/ knotsBaromVisibWave heightAir tempDewpointWater temp
2016-Feb-05 09:33N 38°21' E 019°54'9 8.6
2016-Feb-05 08:33N 38°13' E 019°58'36 9.0
2016-Feb-05 04:33N 37°43' E 020°22'173 9.1
2016-Feb-04 09:27N 37°21' E 023°59'2612.4
2016-Feb-04 07:22N 37°45' E 024°12'12 3.2
2016-Feb-04 03:31N 37°52' E 024°25'13211.8
2016-Feb-03 16:23N 39°47' E 025°45'  
2016-Jan-31 09:33N 40°53' E 028°38'1211.4
2016-Jan-31 08:32N 40°56' E 028°53'8 8.0
2016-Jan-31 07:33N 41°02' E 028°60'  
2016-Jan-26 22:17N 44°30' E 037°39'913.0
2016-Jan-26 21:34N 44°37' E 037°48'5 5.4
2016-Jan-26 20:33N 44°42' E 037°50'0 0.2
2016-Jan-26 19:33N 44°42' E 037°50'0 0.0
2016-Jan-26 18:34N 44°42' E 037°50'0 0.0
2016-Jan-26 17:33N 44°42' E 037°50'0 0.0
2016-Jan-26 16:33N 44°42' E 037°50'0 0.0
2016-Jan-26 15:33N 44°42' E 037°50'0 0.0
2016-Jan-26 14:33N 44°42' E 037°50'0 0.0
2016-Jan-26 13:34N 44°42' E 037°50'0 0.0
2016-Jan-26 12:33N 44°42' E 037°50'0 0.0
2016-Jan-26 11:34N 44°42' E 037°50'0 0.0
2016-Jan-26 10:34N 44°42' E 037°50'0 0.0
2016-Jan-26 09:34N 44°42' E 037°50'  

Dump ship's entire track history